Pagina principale
METAR-TAF:

METAR-TAF

Aeroporti :

Zahedan, Iran

latitudine: 29-28N, longitudine: 060-53E, altezza: 1370 m

Osservazione

Il bollettino è stato emesso 1 ora e 31 minuti fa, alle 14:00 UTC
Vento 8 kt da nord/nord-est
Temperature 35°C
Umidità 9%
Pressione 1012 hPa
Visibilità: 8000 m

METAR: OIZH 051400Z 02008KT 8000 NSC 35/M02 Q1012 A2988 NOSIG

Ora: 20:01 (15:31 UTC)

Previsione

Il bollettino è stato emesso 4 ore e 16 minuti fa, alle 11:15 UTC
Previsione valida dal 05 alle 12 UTC al 06 alle 18 UTC
Vento 16 kt da nord/nord-est
Visibilità: 7000 m
Temporaneamente
dal 05 alle 12 UTC al 05 alle 16 UTC
Vento 18 kt da nord con raffiche fino a 28 kt
Visibilità: 3000 m
sabbia
Temporaneamente
dal 06 alle 09 UTC al 06 alle 16 UTC
Vento 16 kt da nord con raffiche fino a 26 kt
Visibilità: 4000 m
sabbia

TAF: OIZH 051115Z 0512/0618 03016KT 7000 NSC TEMPO 0512/0516 01018G28KT 3000 SA TEMPO 0609/0616 01016G26KT 4000 SA

Osservazioni e previsioni meteorologiche di più di 4000 aeroporti (messaggi METAR e TAF).

Le stazioni disponibili sono rappresentate dai dischi gialli e rossi sulla carta.

Puntare il mouse per vedere il nome della stazione.

Clicca sopra per visualizzare le osservazioni e previsioni meteorologiche.

Per cambiare la mappa : fare clic sui pulsanti verdi con una croce nera per ingrandire, il pulsante verde con un trattino per diminuire, o sulla freccia verde per le mappe adiacenti.


METAR-TAF: